Terminal Aerodrome Forecast
Issued by NWS Hastings, NE

Home | Current Version | Previous Version | Text Only | Print | Product List | Glossary On
Versions: 1 2 3 4 5 6 7 8 9 10 11 12 13 14 15
000
FTUS43 KGID 270521
TAFGRI
TAF
KGRI 270521Z 2706/2806 12005KT P6SM FEW250
     FM271000 15006KT 1 1/2SM BR BKN008
     FM271300 15012KT P6SM SCT030
     FM271600 16018G25KT P6SM SCT130
     FM280000 16021G29KT P6SM BKN110=

USA.gov is the U.S. government's official web portal to all federal, state and local government web resources and services.